sensor_id;sensor_type;location;lat;lon;timestamp;temperature;humidity
69204;DHT22;56317;27.658;85.326;2023-08-08T00:01:37;20.90;99.90
69204;DHT22;56317;27.658;85.326;2023-08-08T00:04:05;21.00;99.90
69204;DHT22;56317;27.658;85.326;2023-08-08T00:06:32;21.00;99.90
69204;DHT22;56317;27.658;85.326;2023-08-08T00:08:59;21.00;99.90
69204;DHT22;56317;27.658;85.326;2023-08-08T00:11:26;21.00;99.90
69204;DHT22;56317;27.658;85.326;2023-08-08T00:13:53;21.00;99.90
69204;DHT22;56317;27.658;85.326;2023-08-08T00:16:20;21.00;99.90
69204;DHT22;56317;27.658;85.326;2023-08-08T00:18:47;21.00;99.90
69204;DHT22;56317;27.658;85.326;2023-08-08T00:21:17;21.00;99.90
69204;DHT22;56317;27.658;85.326;2023-08-08T00:23:44;21.00;99.90
69204;DHT22;56317;27.658;85.326;2023-08-08T00:26:11;21.00;99.90
69204;DHT22;56317;27.658;85.326;2023-08-08T00:28:38;21.00;99.90
69204;DHT22;56317;27.658;85.326;2023-08-08T00:31:06;21.00;99.90
69204;DHT22;56317;27.658;85.326;2023-08-08T00:33:33;21.00;99.90
69204;DHT22;56317;27.658;85.326;2023-08-08T00:36:00;21.10;99.90
69204;DHT22;56317;27.658;85.326;2023-08-08T00:38:27;21.00;99.90
69204;DHT22;56317;27.658;85.326;2023-08-08T00:40:54;21.00;99.90
69204;DHT22;56317;27.658;85.326;2023-08-08T00:43:21;21.00;99.90
69204;DHT22;56317;27.658;85.326;2023-08-08T00:45:49;21.00;99.90
69204;DHT22;56317;27.658;85.326;2023-08-08T00:48:16;20.90;99.90
69204;DHT22;56317;27.658;85.326;2023-08-08T00:50:46;20.90;99.90
69204;DHT22;56317;27.658;85.326;2023-08-08T00:53:15;20.90;99.90
69204;DHT22;56317;27.658;85.326;2023-08-08T00:55:43;20.90;99.90
69204;DHT22;56317;27.658;85.326;2023-08-08T00:58:11;20.90;99.90
69204;DHT22;56317;27.658;85.326;2023-08-08T01:00:39;20.90;99.90
69204;DHT22;56317;27.658;85.326;2023-08-08T01:03:06;20.90;99.90
69204;DHT22;56317;27.658;85.326;2023-08-08T01:05:45;20.90;99.90
69204;DHT22;56317;27.658;85.326;2023-08-08T01:08:18;20.90;99.90
69204;DHT22;56317;27.658;85.326;2023-08-08T01:10:46;20.90;99.90
69204;DHT22;56317;27.658;85.326;2023-08-08T01:13:24;20.90;99.90
69204;DHT22;56317;27.658;85.326;2023-08-08T01:15:53;21.00;99.90
69204;DHT22;56317;27.658;85.326;2023-08-08T01:18:22;21.00;99.90
69204;DHT22;56317;27.658;85.326;2023-08-08T01:20:51;21.00;99.90
69204;DHT22;56317;27.658;85.326;2023-08-08T01:26:04;21.00;99.90
69204;DHT22;56317;27.658;85.326;2023-08-08T01:28:31;21.00;99.90
69204;DHT22;56317;27.658;85.326;2023-08-08T01:30:58;21.00;99.90
69204;DHT22;56317;27.658;85.326;2023-08-08T01:33:26;21.00;99.90
69204;DHT22;56317;27.658;85.326;2023-08-08T01:36:32;21.00;99.90
69204;DHT22;56317;27.658;85.326;2023-08-08T01:39:02;21.00;99.90
69204;DHT22;56317;27.658;85.326;2023-08-08T01:41:38;21.00;99.90
69204;DHT22;56317;27.658;85.326;2023-08-08T01:44:05;21.10;99.90
69204;DHT22;56317;27.658;85.326;2023-08-08T01:46:34;21.10;99.90
69204;DHT22;56317;27.658;85.326;2023-08-08T01:49:02;21.10;99.90
69204;DHT22;56317;27.658;85.326;2023-08-08T01:51:29;21.10;99.90
69204;DHT22;56317;27.658;85.326;2023-08-08T01:53:57;21.10;99.90
69204;DHT22;56317;27.658;85.326;2023-08-08T01:56:24;21.10;99.90
69204;DHT22;56317;27.658;85.326;2023-08-08T01:58:51;21.20;99.90
69204;DHT22;56317;27.658;85.326;2023-08-08T02:01:18;21.20;99.90
69204;DHT22;56317;27.658;85.326;2023-08-08T02:03:46;21.10;99.90
69204;DHT22;56317;27.658;85.326;2023-08-08T02:06:13;21.20;99.90
69204;DHT22;56317;27.658;85.326;2023-08-08T02:08:40;21.20;99.90
69204;DHT22;56317;27.658;85.326;2023-08-08T02:11:07;21.30;99.90
69204;DHT22;56317;27.658;85.326;2023-08-08T02:13:34;21.30;99.90
69204;DHT22;56317;27.658;85.326;2023-08-08T02:16:01;21.30;99.90
69204;DHT22;56317;27.658;85.326;2023-08-08T02:18:28;21.30;99.90
69204;DHT22;56317;27.658;85.326;2023-08-08T02:20:55;21.30;99.90
69204;DHT22;56317;27.658;85.326;2023-08-08T02:23:22;21.40;99.90
69204;DHT22;56317;27.658;85.326;2023-08-08T02:25:49;21.40;99.90
69204;DHT22;56317;27.658;85.326;2023-08-08T02:28:16;21.40;99.90
69204;DHT22;56317;27.658;85.326;2023-08-08T02:30:44;21.50;99.90
69204;DHT22;56317;27.658;85.326;2023-08-08T02:33:11;21.60;99.90
69204;DHT22;56317;27.658;85.326;2023-08-08T02:35:38;21.70;99.90
69204;DHT22;56317;27.658;85.326;2023-08-08T02:38:06;21.70;99.90
69204;DHT22;56317;27.658;85.326;2023-08-08T02:40:33;21.70;99.90
69204;DHT22;56317;27.658;85.326;2023-08-08T02:43:00;21.80;99.90
69204;DHT22;56317;27.658;85.326;2023-08-08T02:45:27;21.80;99.90
69204;DHT22;56317;27.658;85.326;2023-08-08T02:47:54;21.90;99.90
69204;DHT22;56317;27.658;85.326;2023-08-08T02:50:22;21.90;99.90
69204;DHT22;56317;27.658;85.326;2023-08-08T02:52:49;22.00;99.90
69204;DHT22;56317;27.658;85.326;2023-08-08T02:55:17;22.00;99.90
69204;DHT22;56317;27.658;85.326;2023-08-08T02:57:44;22.10;99.90
69204;DHT22;56317;27.658;85.326;2023-08-08T03:00:11;22.20;99.90
69204;DHT22;56317;27.658;85.326;2023-08-08T03:02:39;22.20;99.90
69204;DHT22;56317;27.658;85.326;2023-08-08T03:05:06;22.30;99.90
69204;DHT22;56317;27.658;85.326;2023-08-08T03:07:42;22.40;99.90
69204;DHT22;56317;27.658;85.326;2023-08-08T03:10:09;22.50;99.90
69204;DHT22;56317;27.658;85.326;2023-08-08T03:12:48;22.60;99.90
69204;DHT22;56317;27.658;85.326;2023-08-08T03:15:18;22.70;99.90
69204;DHT22;56317;27.658;85.326;2023-08-08T03:17:46;22.80;99.90
69204;DHT22;56317;27.658;85.326;2023-08-08T03:20:13;22.90;99.90
69204;DHT22;56317;27.658;85.326;2023-08-08T03:22:40;23.10;99.90
69204;DHT22;56317;27.658;85.326;2023-08-08T03:25:12;23.20;99.90
69204;DHT22;56317;27.658;85.326;2023-08-08T03:27:39;23.20;99.90
69204;DHT22;56317;27.658;85.326;2023-08-08T03:30:07;23.30;99.90
69204;DHT22;56317;27.658;85.326;2023-08-08T03:32:34;23.50;99.90
69204;DHT22;56317;27.658;85.326;2023-08-08T03:35:01;23.60;99.90
69204;DHT22;56317;27.658;85.326;2023-08-08T03:37:30;23.80;99.90
69204;DHT22;56317;27.658;85.326;2023-08-08T03:39:57;24.00;99.90
69204;DHT22;56317;27.658;85.326;2023-08-08T03:42:24;24.20;99.90
69204;DHT22;56317;27.658;85.326;2023-08-08T03:44:51;24.40;99.90
69204;DHT22;56317;27.658;85.326;2023-08-08T03:47:18;24.60;99.90
69204;DHT22;56317;27.658;85.326;2023-08-08T03:49:45;24.70;99.90
69204;DHT22;56317;27.658;85.326;2023-08-08T03:52:13;24.90;99.90
69204;DHT22;56317;27.658;85.326;2023-08-08T03:54:40;25.10;99.90
69204;DHT22;56317;27.658;85.326;2023-08-08T03:57:07;25.20;99.90
69204;DHT22;56317;27.658;85.326;2023-08-08T03:59:34;25.30;99.90
69204;DHT22;56317;27.658;85.326;2023-08-08T04:02:01;25.30;99.90
69204;DHT22;56317;27.658;85.326;2023-08-08T04:04:29;25.30;99.90
69204;DHT22;56317;27.658;85.326;2023-08-08T04:06:56;25.30;99.90
69204;DHT22;56317;27.658;85.326;2023-08-08T04:09:23;25.30;99.90
69204;DHT22;56317;27.658;85.326;2023-08-08T04:11:51;25.40;99.90
69204;DHT22;56317;27.658;85.326;2023-08-08T04:14:18;25.40;99.90
69204;DHT22;56317;27.658;85.326;2023-08-08T04:16:45;25.50;99.90
69204;DHT22;56317;27.658;85.326;2023-08-08T04:19:12;25.70;99.90
69204;DHT22;56317;27.658;85.326;2023-08-08T04:21:39;25.80;99.90
69204;DHT22;56317;27.658;85.326;2023-08-08T04:24:07;25.70;99.90
69204;DHT22;56317;27.658;85.326;2023-08-08T04:26:35;25.80;99.90
69204;DHT22;56317;27.658;85.326;2023-08-08T04:29:02;25.90;99.90
69204;DHT22;56317;27.658;85.326;2023-08-08T04:31:30;26.00;99.90
69204;DHT22;56317;27.658;85.326;2023-08-08T04:33:57;26.00;99.90
69204;DHT22;56317;27.658;85.326;2023-08-08T04:36:27;26.00;99.90
69204;DHT22;56317;27.658;85.326;2023-08-08T04:38:55;26.20;99.90
69204;DHT22;56317;27.658;85.326;2023-08-08T04:41:22;26.30;99.90
69204;DHT22;56317;27.658;85.326;2023-08-08T04:43:50;26.50;99.90
69204;DHT22;56317;27.658;85.326;2023-08-08T04:46:17;26.70;99.90
69204;DHT22;56317;27.658;85.326;2023-08-08T04:48:44;26.80;99.90
69204;DHT22;56317;27.658;85.326;2023-08-08T04:51:12;26.90;99.90
69204;DHT22;56317;27.658;85.326;2023-08-08T04:53:39;27.00;99.90
69204;DHT22;56317;27.658;85.326;2023-08-08T04:56:06;27.20;99.90
69204;DHT22;56317;27.658;85.326;2023-08-08T04:58:33;27.40;99.90
69204;DHT22;56317;27.658;85.326;2023-08-08T05:01:00;27.50;99.90
69204;DHT22;56317;27.658;85.326;2023-08-08T05:03:28;27.70;99.90
69204;DHT22;56317;27.658;85.326;2023-08-08T05:05:55;27.80;99.90
69204;DHT22;56317;27.658;85.326;2023-08-08T05:08:22;27.70;99.90
69204;DHT22;56317;27.658;85.326;2023-08-08T05:10:49;27.60;99.90
69204;DHT22;56317;27.658;85.326;2023-08-08T05:13:16;27.40;99.90
69204;DHT22;56317;27.658;85.326;2023-08-08T05:15:44;27.40;99.90
69204;DHT22;56317;27.658;85.326;2023-08-08T05:18:11;27.50;99.90
69204;DHT22;56317;27.658;85.326;2023-08-08T05:20:39;27.50;99.90
69204;DHT22;56317;27.658;85.326;2023-08-08T05:23:06;27.70;99.90
69204;DHT22;56317;27.658;85.326;2023-08-08T05:25:34;27.70;99.90
69204;DHT22;56317;27.658;85.326;2023-08-08T05:28:01;27.60;99.90
69204;DHT22;56317;27.658;85.326;2023-08-08T05:30:28;27.60;99.90
69204;DHT22;56317;27.658;85.326;2023-08-08T05:32:55;27.90;99.90
69204;DHT22;56317;27.658;85.326;2023-08-08T05:35:22;27.90;99.90
69204;DHT22;56317;27.658;85.326;2023-08-08T05:37:50;28.00;99.90
69204;DHT22;56317;27.658;85.326;2023-08-08T05:40:17;27.90;99.90
69204;DHT22;56317;27.658;85.326;2023-08-08T05:42:44;27.90;99.90
69204;DHT22;56317;27.658;85.326;2023-08-08T05:45:11;28.00;99.90
69204;DHT22;56317;27.658;85.326;2023-08-08T05:47:38;28.10;99.90
69204;DHT22;56317;27.658;85.326;2023-08-08T05:50:06;28.30;99.90
69204;DHT22;56317;27.658;85.326;2023-08-08T05:52:35;28.50;99.90
69204;DHT22;56317;27.658;85.326;2023-08-08T05:55:11;28.80;99.90
69204;DHT22;56317;27.658;85.326;2023-08-08T05:57:41;28.90;99.90
69204;DHT22;56317;27.658;85.326;2023-08-08T06:00:09;29.10;99.90
69204;DHT22;56317;27.658;85.326;2023-08-08T06:02:38;29.30;99.90
69204;DHT22;56317;27.658;85.326;2023-08-08T06:05:06;29.70;99.90
69204;DHT22;56317;27.658;85.326;2023-08-08T06:07:33;29.90;99.90
69204;DHT22;56317;27.658;85.326;2023-08-08T06:10:01;29.90;99.90
69204;DHT22;56317;27.658;85.326;2023-08-08T06:12:29;30.00;99.90
69204;DHT22;56317;27.658;85.326;2023-08-08T06:14:56;30.00;99.90
69204;DHT22;56317;27.658;85.326;2023-08-08T06:17:24;30.10;99.90
69204;DHT22;56317;27.658;85.326;2023-08-08T06:19:51;30.20;99.90
69204;DHT22;56317;27.658;85.326;2023-08-08T06:22:20;30.30;99.90
69204;DHT22;56317;27.658;85.326;2023-08-08T06:24:47;30.10;99.90
69204;DHT22;56317;27.658;85.326;2023-08-08T06:27:15;30.00;99.90
69204;DHT22;56317;27.658;85.326;2023-08-08T06:29:42;30.00;99.90
69204;DHT22;56317;27.658;85.326;2023-08-08T06:32:09;30.00;99.90
69204;DHT22;56317;27.658;85.326;2023-08-08T06:34:36;29.80;99.90
69204;DHT22;56317;27.658;85.326;2023-08-08T06:37:04;29.70;99.90
69204;DHT22;56317;27.658;85.326;2023-08-08T06:39:31;29.60;99.90
69204;DHT22;56317;27.658;85.326;2023-08-08T06:41:58;29.60;99.90
69204;DHT22;56317;27.658;85.326;2023-08-08T06:44:25;29.80;99.90
69204;DHT22;56317;27.658;85.326;2023-08-08T06:46:53;30.10;99.90
69204;DHT22;56317;27.658;85.326;2023-08-08T06:49:20;30.40;99.90
69204;DHT22;56317;27.658;85.326;2023-08-08T06:51:50;30.60;99.90
69204;DHT22;56317;27.658;85.326;2023-08-08T06:54:17;30.70;99.90
69204;DHT22;56317;27.658;85.326;2023-08-08T06:56:44;31.20;99.90
69204;DHT22;56317;27.658;85.326;2023-08-08T06:59:11;31.60;99.90
69204;DHT22;56317;27.658;85.326;2023-08-08T07:01:39;32.00;99.90
69204;DHT22;56317;27.658;85.326;2023-08-08T07:04:06;32.40;99.90
69204;DHT22;56317;27.658;85.326;2023-08-08T07:06:34;33.00;99.90
69204;DHT22;56317;27.658;85.326;2023-08-08T07:09:01;33.10;99.90
69204;DHT22;56317;27.658;85.326;2023-08-08T07:11:28;33.40;99.90
69204;DHT22;56317;27.658;85.326;2023-08-08T07:13:56;33.60;99.90
69204;DHT22;56317;27.658;85.326;2023-08-08T07:16:23;33.50;99.90
69204;DHT22;56317;27.658;85.326;2023-08-08T07:18:50;33.60;99.90
69204;DHT22;56317;27.658;85.326;2023-08-08T07:21:17;33.90;99.90
69204;DHT22;56317;27.658;85.326;2023-08-08T07:23:44;34.50;99.90
69204;DHT22;56317;27.658;85.326;2023-08-08T07:26:11;34.80;99.90
69204;DHT22;56317;27.658;85.326;2023-08-08T07:28:39;34.40;99.90
69204;DHT22;56317;27.658;85.326;2023-08-08T07:31:09;34.00;99.90
69204;DHT22;56317;27.658;85.326;2023-08-08T07:33:36;34.00;99.90
69204;DHT22;56317;27.658;85.326;2023-08-08T07:36:04;34.10;99.90
69204;DHT22;56317;27.658;85.326;2023-08-08T07:38:31;34.20;99.90
69204;DHT22;56317;27.658;85.326;2023-08-08T07:40:59;34.60;99.90
69204;DHT22;56317;27.658;85.326;2023-08-08T07:43:26;35.20;99.90
69204;DHT22;56317;27.658;85.326;2023-08-08T07:45:54;35.40;99.90
69204;DHT22;56317;27.658;85.326;2023-08-08T07:48:21;35.30;99.70
69204;DHT22;56317;27.658;85.326;2023-08-08T07:50:48;34.70;99.60
69204;DHT22;56317;27.658;85.326;2023-08-08T07:53:15;34.50;99.90
69204;DHT22;56317;27.658;85.326;2023-08-08T07:55:42;34.20;99.90
69204;DHT22;56317;27.658;85.326;2023-08-08T07:58:09;34.00;99.90
69204;DHT22;56317;27.658;85.326;2023-08-08T08:00:36;33.80;99.90
69204;DHT22;56317;27.658;85.326;2023-08-08T08:03:05;33.50;99.90
69204;DHT22;56317;27.658;85.326;2023-08-08T08:05:32;33.10;99.90
69204;DHT22;56317;27.658;85.326;2023-08-08T08:08:01;32.90;99.90
69204;DHT22;56317;27.658;85.326;2023-08-08T08:10:28;32.70;99.90
69204;DHT22;56317;27.658;85.326;2023-08-08T08:12:56;32.50;99.90
69204;DHT22;56317;27.658;85.326;2023-08-08T08:15:25;32.50;99.90
69204;DHT22;56317;27.658;85.326;2023-08-08T08:17:52;32.60;99.90
69204;DHT22;56317;27.658;85.326;2023-08-08T08:20:20;32.70;99.90
69204;DHT22;56317;27.658;85.326;2023-08-08T08:22:47;32.80;99.90
69204;DHT22;56317;27.658;85.326;2023-08-08T08:25:15;32.80;99.90
69204;DHT22;56317;27.658;85.326;2023-08-08T08:27:42;32.50;99.90
69204;DHT22;56317;27.658;85.326;2023-08-08T08:30:10;32.30;99.90
69204;DHT22;56317;27.658;85.326;2023-08-08T08:32:40;32.20;99.90
69204;DHT22;56317;27.658;85.326;2023-08-08T08:35:08;31.90;99.90
69204;DHT22;56317;27.658;85.326;2023-08-08T08:37:36;31.80;99.90
69204;DHT22;56317;27.658;85.326;2023-08-08T08:40:03;31.60;99.90
69204;DHT22;56317;27.658;85.326;2023-08-08T08:42:32;31.00;99.90
69204;DHT22;56317;27.658;85.326;2023-08-08T08:45:00;30.50;99.90
69204;DHT22;56317;27.658;85.326;2023-08-08T08:47:31;30.30;99.90
69204;DHT22;56317;27.658;85.326;2023-08-08T08:49:58;30.10;99.90
69204;DHT22;56317;27.658;85.326;2023-08-08T08:52:31;30.00;99.90
69204;DHT22;56317;27.658;85.326;2023-08-08T08:54:59;30.00;99.90
69204;DHT22;56317;27.658;85.326;2023-08-08T08:57:26;30.00;99.90
69204;DHT22;56317;27.658;85.326;2023-08-08T08:59:53;30.10;99.90
69204;DHT22;56317;27.658;85.326;2023-08-08T09:02:21;29.90;99.90
69204;DHT22;56317;27.658;85.326;2023-08-08T09:04:49;29.50;99.90
69204;DHT22;56317;27.658;85.326;2023-08-08T09:07:20;29.20;99.90
69204;DHT22;56317;27.658;85.326;2023-08-08T09:09:47;29.00;99.90
69204;DHT22;56317;27.658;85.326;2023-08-08T09:12:15;28.80;99.90
69204;DHT22;56317;27.658;85.326;2023-08-08T09:14:43;28.70;99.90
69204;DHT22;56317;27.658;85.326;2023-08-08T09:17:11;28.30;99.90
69204;DHT22;56317;27.658;85.326;2023-08-08T09:19:45;28.00;99.90
69204;DHT22;56317;27.658;85.326;2023-08-08T09:22:13;27.70;99.90
69204;DHT22;56317;27.658;85.326;2023-08-08T09:24:41;27.40;99.90
69204;DHT22;56317;27.658;85.326;2023-08-08T09:27:09;27.20;99.90
69204;DHT22;56317;27.658;85.326;2023-08-08T09:29:37;27.10;99.90
69204;DHT22;56317;27.658;85.326;2023-08-08T09:32:06;27.00;99.90
69204;DHT22;56317;27.658;85.326;2023-08-08T09:34:34;27.00;99.90
69204;DHT22;56317;27.658;85.326;2023-08-08T09:37:01;27.10;99.90
69204;DHT22;56317;27.658;85.326;2023-08-08T09:39:29;27.20;99.90
69204;DHT22;56317;27.658;85.326;2023-08-08T09:41:57;27.10;99.90
69204;DHT22;56317;27.658;85.326;2023-08-08T09:44:25;27.10;99.90
69204;DHT22;56317;27.658;85.326;2023-08-08T09:46:54;27.10;99.90
69204;DHT22;56317;27.658;85.326;2023-08-08T09:49:22;27.30;99.90
69204;DHT22;56317;27.658;85.326;2023-08-08T09:51:50;27.40;99.90
69204;DHT22;56317;27.658;85.326;2023-08-08T09:54:17;27.70;99.90
69204;DHT22;56317;27.658;85.326;2023-08-08T09:56:49;27.80;99.90
69204;DHT22;56317;27.658;85.326;2023-08-08T09:59:17;27.90;99.90
69204;DHT22;56317;27.658;85.326;2023-08-08T10:01:45;28.00;99.90
69204;DHT22;56317;27.658;85.326;2023-08-08T10:04:13;27.90;99.90
69204;DHT22;56317;27.658;85.326;2023-08-08T10:06:40;27.70;99.90
69204;DHT22;56317;27.658;85.326;2023-08-08T10:09:08;27.60;99.90
69204;DHT22;56317;27.658;85.326;2023-08-08T10:11:35;27.40;99.90
69204;DHT22;56317;27.658;85.326;2023-08-08T10:14:03;27.30;99.90
69204;DHT22;56317;27.658;85.326;2023-08-08T10:16:34;27.20;99.90
69204;DHT22;56317;27.658;85.326;2023-08-08T10:19:03;27.10;99.90
69204;DHT22;56317;27.658;85.326;2023-08-08T10:21:43;27.00;99.90
69204;DHT22;56317;27.658;85.326;2023-08-08T10:24:20;26.90;99.90
69204;DHT22;56317;27.658;85.326;2023-08-08T10:27:01;26.70;99.90
69204;DHT22;56317;27.658;85.326;2023-08-08T10:29:30;26.60;99.90
69204;DHT22;56317;27.658;85.326;2023-08-08T10:32:03;26.50;99.90
69204;DHT22;56317;27.658;85.326;2023-08-08T10:34:43;26.30;99.90
69204;DHT22;56317;27.658;85.326;2023-08-08T10:37:19;26.30;99.90
69204;DHT22;56317;27.658;85.326;2023-08-08T10:39:58;26.20;99.90
69204;DHT22;56317;27.658;85.326;2023-08-08T10:42:27;26.00;99.90
69204;DHT22;56317;27.658;85.326;2023-08-08T10:45:01;26.00;99.90
69204;DHT22;56317;27.658;85.326;2023-08-08T10:47:34;25.90;99.90
69204;DHT22;56317;27.658;85.326;2023-08-08T10:50:06;25.90;99.90
69204;DHT22;56317;27.658;85.326;2023-08-08T10:52:53;26.00;99.90
69204;DHT22;56317;27.658;85.326;2023-08-08T10:55:26;26.00;99.90
69204;DHT22;56317;27.658;85.326;2023-08-08T10:58:10;25.90;99.90
69204;DHT22;56317;27.658;85.326;2023-08-08T11:00:42;25.90;99.90
69204;DHT22;56317;27.658;85.326;2023-08-08T11:03:09;25.90;99.90
69204;DHT22;56317;27.658;85.326;2023-08-08T11:05:46;25.90;99.90
69204;DHT22;56317;27.658;85.326;2023-08-08T11:08:15;25.80;99.90
69204;DHT22;56317;27.658;85.326;2023-08-08T11:10:43;25.70;99.90
69204;DHT22;56317;27.658;85.326;2023-08-08T11:13:10;25.70;99.90
69204;DHT22;56317;27.658;85.326;2023-08-08T11:15:37;25.70;99.90
69204;DHT22;56317;27.658;85.326;2023-08-08T11:18:05;25.70;99.90
69204;DHT22;56317;27.658;85.326;2023-08-08T11:20:34;25.70;99.90
69204;DHT22;56317;27.658;85.326;2023-08-08T11:23:03;25.70;99.90
69204;DHT22;56317;27.658;85.326;2023-08-08T11:25:39;25.80;99.90
69204;DHT22;56317;27.658;85.326;2023-08-08T11:28:06;25.80;99.90
69204;DHT22;56317;27.658;85.326;2023-08-08T11:30:45;25.70;99.90
69204;DHT22;56317;27.658;85.326;2023-08-08T11:33:16;25.70;99.90
69204;DHT22;56317;27.658;85.326;2023-08-08T11:35:46;25.70;99.90
69204;DHT22;56317;27.658;85.326;2023-08-08T11:38:15;25.80;99.90
69204;DHT22;56317;27.658;85.326;2023-08-08T11:40:43;25.80;99.90
69204;DHT22;56317;27.658;85.326;2023-08-08T11:43:12;25.80;99.90
69204;DHT22;56317;27.658;85.326;2023-08-08T11:45:40;25.80;99.90
69204;DHT22;56317;27.658;85.326;2023-08-08T11:48:08;25.80;99.90
69204;DHT22;56317;27.658;85.326;2023-08-08T11:50:37;25.80;99.90
69204;DHT22;56317;27.658;85.326;2023-08-08T11:53:07;25.80;99.90
69204;DHT22;56317;27.658;85.326;2023-08-08T11:55:36;25.70;99.90
69204;DHT22;56317;27.658;85.326;2023-08-08T11:58:04;25.60;99.90
69204;DHT22;56317;27.658;85.326;2023-08-08T12:00:32;25.60;99.90
69204;DHT22;56317;27.658;85.326;2023-08-08T12:03:01;25.50;99.90
69204;DHT22;56317;27.658;85.326;2023-08-08T12:05:30;25.50;99.90
69204;DHT22;56317;27.658;85.326;2023-08-08T12:08:05;25.30;99.90
69204;DHT22;56317;27.658;85.326;2023-08-08T12:10:33;25.30;99.90
69204;DHT22;56317;27.658;85.326;2023-08-08T12:13:00;25.20;99.90
69204;DHT22;56317;27.658;85.326;2023-08-08T12:15:34;25.10;99.90
69204;DHT22;56317;27.658;85.326;2023-08-08T12:18:22;25.10;99.90
69204;DHT22;56317;27.658;85.326;2023-08-08T12:20:50;25.00;99.90
69204;DHT22;56317;27.658;85.326;2023-08-08T12:23:17;24.90;99.90
69204;DHT22;56317;27.658;85.326;2023-08-08T12:25:44;24.90;99.90
69204;DHT22;56317;27.658;85.326;2023-08-08T12:28:12;24.80;99.90
69204;DHT22;56317;27.658;85.326;2023-08-08T12:30:40;24.70;99.90
69204;DHT22;56317;27.658;85.326;2023-08-08T12:33:07;24.70;99.90
69204;DHT22;56317;27.658;85.326;2023-08-08T12:35:34;24.60;99.90
69204;DHT22;56317;27.658;85.326;2023-08-08T12:38:01;24.50;99.90
69204;DHT22;56317;27.658;85.326;2023-08-08T12:40:29;24.40;99.90
69204;DHT22;56317;27.658;85.326;2023-08-08T12:42:56;24.40;99.90
69204;DHT22;56317;27.658;85.326;2023-08-08T12:45:24;24.30;99.90
69204;DHT22;56317;27.658;85.326;2023-08-08T12:47:51;24.20;99.90
69204;DHT22;56317;27.658;85.326;2023-08-08T12:50:18;24.20;99.90
69204;DHT22;56317;27.658;85.326;2023-08-08T12:52:45;24.10;99.90
69204;DHT22;56317;27.658;85.326;2023-08-08T12:55:12;24.00;99.90
69204;DHT22;56317;27.658;85.326;2023-08-08T12:57:41;23.90;99.90
69204;DHT22;56317;27.658;85.326;2023-08-08T13:00:08;23.90;99.90
69204;DHT22;56317;27.658;85.326;2023-08-08T13:02:37;23.80;99.90
69204;DHT22;56317;27.658;85.326;2023-08-08T13:05:04;23.70;99.90
69204;DHT22;56317;27.658;85.326;2023-08-08T13:07:33;23.70;99.90
69204;DHT22;56317;27.658;85.326;2023-08-08T13:10:00;23.60;99.90
69204;DHT22;56317;27.658;85.326;2023-08-08T13:12:27;23.50;99.90
69204;DHT22;56317;27.658;85.326;2023-08-08T13:14:54;23.50;99.90
69204;DHT22;56317;27.658;85.326;2023-08-08T13:17:22;23.50;99.90
69204;DHT22;56317;27.658;85.326;2023-08-08T13:19:49;23.40;99.90
69204;DHT22;56317;27.658;85.326;2023-08-08T13:22:16;23.30;99.90
69204;DHT22;56317;27.658;85.326;2023-08-08T13:24:43;23.30;99.90
69204;DHT22;56317;27.658;85.326;2023-08-08T13:27:10;23.30;99.90
69204;DHT22;56317;27.658;85.326;2023-08-08T13:29:37;23.20;99.90
69204;DHT22;56317;27.658;85.326;2023-08-08T13:32:05;23.20;99.90
69204;DHT22;56317;27.658;85.326;2023-08-08T13:34:32;23.10;99.90
69204;DHT22;56317;27.658;85.326;2023-08-08T13:36:59;23.10;99.90
69204;DHT22;56317;27.658;85.326;2023-08-08T13:39:26;23.10;99.90
69204;DHT22;56317;27.658;85.326;2023-08-08T13:41:54;23.10;99.90
69204;DHT22;56317;27.658;85.326;2023-08-08T13:44:21;23.10;99.90
69204;DHT22;56317;27.658;85.326;2023-08-08T13:46:48;23.00;99.90
69204;DHT22;56317;27.658;85.326;2023-08-08T13:49:15;23.00;99.90
69204;DHT22;56317;27.658;85.326;2023-08-08T13:51:42;23.00;99.90
69204;DHT22;56317;27.658;85.326;2023-08-08T13:54:10;23.00;99.90
69204;DHT22;56317;27.658;85.326;2023-08-08T13:56:37;23.00;99.90
69204;DHT22;56317;27.658;85.326;2023-08-08T13:59:04;23.00;99.90
69204;DHT22;56317;27.658;85.326;2023-08-08T14:01:32;22.90;99.90
69204;DHT22;56317;27.658;85.326;2023-08-08T14:03:59;22.90;99.90
69204;DHT22;56317;27.658;85.326;2023-08-08T14:06:26;22.90;99.90
69204;DHT22;56317;27.658;85.326;2023-08-08T14:08:53;22.90;99.90
69204;DHT22;56317;27.658;85.326;2023-08-08T14:11:20;22.90;99.90
69204;DHT22;56317;27.658;85.326;2023-08-08T14:13:48;22.80;99.90
69204;DHT22;56317;27.658;85.326;2023-08-08T14:16:15;22.80;99.90
69204;DHT22;56317;27.658;85.326;2023-08-08T14:18:43;22.80;99.90
69204;DHT22;56317;27.658;85.326;2023-08-08T14:21:10;22.80;99.90
69204;DHT22;56317;27.658;85.326;2023-08-08T14:23:38;22.80;99.90
69204;DHT22;56317;27.658;85.326;2023-08-08T14:26:05;22.80;99.90
69204;DHT22;56317;27.658;85.326;2023-08-08T14:28:32;22.80;99.90
69204;DHT22;56317;27.658;85.326;2023-08-08T14:30:59;22.70;99.90
69204;DHT22;56317;27.658;85.326;2023-08-08T14:33:28;22.70;99.90
69204;DHT22;56317;27.658;85.326;2023-08-08T14:35:55;22.70;99.90
69204;DHT22;56317;27.658;85.326;2023-08-08T14:38:24;22.70;99.90
69204;DHT22;56317;27.658;85.326;2023-08-08T14:40:52;22.70;99.90
69204;DHT22;56317;27.658;85.326;2023-08-08T14:43:20;22.70;99.90
69204;DHT22;56317;27.658;85.326;2023-08-08T14:45:47;22.70;99.90
69204;DHT22;56317;27.658;85.326;2023-08-08T14:48:14;22.80;99.90
69204;DHT22;56317;27.658;85.326;2023-08-08T14:50:41;22.80;99.90
69204;DHT22;56317;27.658;85.326;2023-08-08T14:53:08;22.80;99.90
69204;DHT22;56317;27.658;85.326;2023-08-08T14:55:36;22.70;99.90
69204;DHT22;56317;27.658;85.326;2023-08-08T14:58:03;22.80;99.90
69204;DHT22;56317;27.658;85.326;2023-08-08T15:00:30;22.80;99.90
69204;DHT22;56317;27.658;85.326;2023-08-08T15:02:57;22.80;99.90
69204;DHT22;56317;27.658;85.326;2023-08-08T15:05:24;22.80;99.90
69204;DHT22;56317;27.658;85.326;2023-08-08T15:07:51;22.80;99.90
69204;DHT22;56317;27.658;85.326;2023-08-08T15:10:18;22.80;99.90
69204;DHT22;56317;27.658;85.326;2023-08-08T15:12:45;22.70;99.90
69204;DHT22;56317;27.658;85.326;2023-08-08T15:15:13;22.70;99.90
69204;DHT22;56317;27.658;85.326;2023-08-08T15:17:43;22.60;99.90
69204;DHT22;56317;27.658;85.326;2023-08-08T15:20:11;22.60;99.90
69204;DHT22;56317;27.658;85.326;2023-08-08T15:22:38;22.60;99.90
69204;DHT22;56317;27.658;85.326;2023-08-08T15:25:05;22.60;99.90